createdAt,value
2023-05-15T00:01:02.428Z,3.13
2023-05-15T00:03:30.186Z,2.95
2023-05-15T00:05:57.998Z,3.30
2023-05-15T00:08:25.557Z,3.00
2023-05-15T00:11:00.675Z,3.60
2023-05-15T00:13:29.293Z,3.42
2023-05-15T00:15:56.772Z,3.40
2023-05-15T00:18:24.179Z,3.15
2023-05-15T00:20:52.785Z,3.17
2023-05-15T00:23:20.406Z,3.03
2023-05-15T00:25:47.930Z,3.58
2023-05-15T00:28:15.372Z,3.40
2023-05-15T00:30:42.880Z,3.05
2023-05-15T00:33:10.314Z,3.30
2023-05-15T00:35:37.742Z,3.35
2023-05-15T00:38:05.152Z,3.55
2023-05-15T00:40:33.080Z,3.42
2023-05-15T00:43:00.717Z,3.70
2023-05-15T00:45:29.426Z,3.90
2023-05-15T00:47:58.929Z,3.72
2023-05-15T00:50:26.837Z,3.92
2023-05-15T00:52:54.417Z,3.83
2023-05-15T00:55:21.912Z,3.40
2023-05-15T00:57:49.760Z,3.80
2023-05-15T01:00:18.540Z,4.00
2023-05-15T01:02:46.420Z,3.70
2023-05-15T01:05:14.277Z,3.53
2023-05-15T01:07:43.597Z,3.92
2023-05-15T01:10:11.734Z,4.03
2023-05-15T01:12:41.079Z,3.50
2023-05-15T01:15:09.231Z,3.50
2023-05-15T01:17:36.887Z,4.00
2023-05-15T01:20:07.587Z,3.55
2023-05-15T01:22:42.159Z,3.80
2023-05-15T01:25:27.888Z,3.47
2023-05-15T01:28:02.626Z,3.78
2023-05-15T01:30:33.293Z,3.80
2023-05-15T01:33:10.122Z,4.18
2023-05-15T01:35:49.834Z,4.15
2023-05-15T01:38:17.336Z,3.45
2023-05-15T01:40:45.985Z,4.03
2023-05-15T01:43:16.905Z,3.83
2023-05-15T01:45:44.373Z,3.88
2023-05-15T01:48:13.510Z,4.10
2023-05-15T01:50:41.790Z,3.92
2023-05-15T01:53:09.680Z,4.00
2023-05-15T01:55:38.460Z,4.30
2023-05-15T01:58:06.212Z,3.95
2023-05-15T02:00:33.939Z,4.15
2023-05-15T02:03:01.861Z,4.20
2023-05-15T02:05:29.845Z,4.55
2023-05-15T02:07:57.597Z,4.22
2023-05-15T02:10:25.952Z,4.75
2023-05-15T02:12:55.359Z,4.43
2023-05-15T02:15:23.155Z,4.88
2023-05-15T02:17:51.126Z,4.60
2023-05-15T02:20:18.732Z,4.82
2023-05-15T02:22:46.181Z,4.50
2023-05-15T02:25:16.142Z,4.60
2023-05-15T02:27:49.370Z,4.40
2023-05-15T02:30:16.902Z,4.45
2023-05-15T02:32:48.109Z,4.95
2023-05-15T02:35:15.734Z,4.68
2023-05-15T02:37:46.433Z,5.05
2023-05-15T02:40:14.440Z,4.82
2023-05-15T02:42:42.918Z,5.05
2023-05-15T02:45:11.260Z,5.13
2023-05-15T02:47:39.101Z,5.13
2023-05-15T02:50:07.217Z,5.07
2023-05-15T02:52:35.644Z,5.40
2023-05-15T02:55:03.128Z,5.05
2023-05-15T02:57:30.997Z,4.68
2023-05-15T02:59:58.552Z,4.88
2023-05-15T03:02:25.991Z,5.10
2023-05-15T03:04:54.355Z,5.00
2023-05-15T03:07:21.908Z,5.00
2023-05-15T03:09:49.332Z,5.15
2023-05-15T03:12:16.724Z,4.93
2023-05-15T03:14:44.140Z,4.97
2023-05-15T03:17:11.625Z,4.93
2023-05-15T03:19:39.153Z,5.00
2023-05-15T03:22:07.198Z,4.85
2023-05-15T03:24:34.675Z,4.88
2023-05-15T03:27:02.114Z,4.70
2023-05-15T03:29:29.880Z,5.18
2023-05-15T03:31:57.554Z,4.35
2023-05-15T03:34:25.130Z,4.85
2023-05-15T03:36:52.488Z,4.65
2023-05-15T03:39:19.899Z,4.93
2023-05-15T03:41:47.537Z,4.80
2023-05-15T03:44:14.966Z,4.85
2023-05-15T03:46:42.846Z,4.78
2023-05-15T03:49:11.774Z,4.40
2023-05-15T03:51:39.224Z,4.72
2023-05-15T03:54:07.048Z,4.78
2023-05-15T03:56:34.576Z,4.65
2023-05-15T03:59:03.116Z,4.80
2023-05-15T04:01:30.667Z,5.25
2023-05-15T04:03:58.107Z,6.13
2023-05-15T04:06:25.806Z,4.95
2023-05-15T04:08:53.180Z,5.53
2023-05-15T04:11:21.794Z,5.18
2023-05-15T04:13:49.234Z,5.13
2023-05-15T04:16:16.674Z,4.45
2023-05-15T04:18:44.044Z,4.85
2023-05-15T04:21:11.528Z,5.00
2023-05-15T04:23:41.762Z,5.05
2023-05-15T04:26:09.442Z,4.75
2023-05-15T04:28:36.873Z,4.65
2023-05-15T04:31:04.362Z,5.55
2023-05-15T04:33:31.939Z,6.07
2023-05-15T04:35:59.560Z,4.93
2023-05-15T04:38:27.246Z,5.07
2023-05-15T04:40:54.703Z,4.43
2023-05-15T04:43:22.131Z,4.85
2023-05-15T04:45:49.672Z,4.63
2023-05-15T04:48:19.204Z,4.70
2023-05-15T04:50:46.689Z,3.97
2023-05-15T04:53:14.597Z,4.10
2023-05-15T04:55:42.180Z,4.22
2023-05-15T04:58:09.806Z,4.47
2023-05-15T05:00:37.227Z,4.30
2023-05-15T05:03:04.993Z,4.10
2023-05-15T05:05:32.548Z,4.20
2023-05-15T05:07:59.952Z,4.45
2023-05-15T05:10:28.168Z,4.50
2023-05-15T05:12:55.979Z,4.22
2023-05-15T05:15:23.662Z,4.50
2023-05-15T05:17:51.432Z,3.83
2023-05-15T05:20:19.050Z,4.35
2023-05-15T05:22:46.428Z,3.50
2023-05-15T05:25:13.949Z,3.85
2023-05-15T05:27:41.323Z,3.58
2023-05-15T05:30:09.006Z,4.88
2023-05-15T05:32:36.499Z,4.13
2023-05-15T05:35:04.167Z,4.45
2023-05-15T05:37:31.620Z,4.30
2023-05-15T05:39:58.981Z,3.72
2023-05-15T05:42:27.000Z,4.15
2023-05-15T05:44:54.373Z,3.88
2023-05-15T05:47:21.838Z,3.95
2023-05-15T05:49:49.288Z,3.47
2023-05-15T05:52:16.832Z,4.00
2023-05-15T05:54:46.421Z,3.50
2023-05-15T05:57:14.515Z,3.78
2023-05-15T05:59:41.884Z,5.05
2023-05-15T06:02:09.467Z,4.15
2023-05-15T06:04:37.096Z,3.67
2023-05-15T06:07:04.845Z,3.63
2023-05-15T06:09:32.770Z,4.35
2023-05-15T06:12:00.945Z,3.63
2023-05-15T06:14:28.348Z,4.38
2023-05-15T06:16:55.799Z,3.58
2023-05-15T06:19:23.358Z,3.47
2023-05-15T06:21:51.185Z,3.53
2023-05-15T06:24:18.541Z,4.32
2023-05-15T06:26:46.052Z,4.22
2023-05-15T06:29:13.388Z,4.22
2023-05-15T06:31:40.898Z,3.67
2023-05-15T06:34:08.525Z,3.40
2023-05-15T06:36:35.989Z,3.08
2023-05-15T06:39:03.410Z,3.42
2023-05-15T06:41:30.880Z,3.22
2023-05-15T06:43:59.557Z,3.60
2023-05-15T06:46:27.114Z,3.72
2023-05-15T06:48:54.588Z,3.70
2023-05-15T06:51:21.996Z,3.40
2023-05-15T06:53:49.437Z,3.40
2023-05-15T06:56:16.871Z,3.80
2023-05-15T06:58:44.310Z,3.47
2023-05-15T07:01:11.769Z,3.45
2023-05-15T07:03:39.865Z,3.47
2023-05-15T07:06:07.311Z,3.28
2023-05-15T07:08:34.814Z,3.55
2023-05-15T07:11:02.563Z,3.60
2023-05-15T07:13:30.041Z,3.60
2023-05-15T07:15:57.430Z,3.60
2023-05-15T07:18:24.893Z,3.50
2023-05-15T07:20:52.370Z,3.60
2023-05-15T07:23:19.745Z,3.33
2023-05-15T07:25:47.220Z,3.40
2023-05-15T07:28:14.664Z,3.70
2023-05-15T07:30:42.313Z,3.50
2023-05-15T07:33:09.726Z,4.05
2023-05-15T07:35:37.286Z,4.05
2023-05-15T07:38:04.929Z,3.80
2023-05-15T07:40:32.815Z,3.30
2023-05-15T07:43:01.447Z,3.60
2023-05-15T07:45:29.001Z,3.70
2023-05-15T07:47:57.245Z,3.80
2023-05-15T07:50:24.701Z,3.78
2023-05-15T07:52:52.307Z,3.78
2023-05-15T07:55:19.785Z,3.33
2023-05-15T07:57:53.461Z,3.78
2023-05-15T08:00:22.013Z,3.20
2023-05-15T08:02:49.856Z,3.45
2023-05-15T08:05:17.415Z,3.50
2023-05-15T08:07:44.845Z,3.53
2023-05-15T08:10:12.262Z,4.10
2023-05-15T08:12:46.096Z,3.75
2023-05-15T08:15:14.009Z,3.70
2023-05-15T08:17:41.525Z,3.90
2023-05-15T08:20:09.283Z,3.40
2023-05-15T08:22:36.748Z,3.00
2023-05-15T08:25:06.059Z,3.60
2023-05-15T08:27:33.726Z,3.38
2023-05-15T08:30:01.216Z,3.15
2023-05-15T08:32:28.892Z,3.30
2023-05-15T08:34:56.516Z,3.55
2023-05-15T08:37:23.900Z,4.15
2023-05-15T08:39:51.280Z,3.78
2023-05-15T08:42:21.953Z,3.47
2023-05-15T08:44:49.543Z,3.80
2023-05-15T08:47:16.973Z,3.65
2023-05-15T08:49:47.348Z,3.65
2023-05-15T08:52:15.552Z,3.50
2023-05-15T08:54:43.392Z,3.92
2023-05-15T08:57:11.567Z,3.63
2023-05-15T08:59:39.001Z,3.60
2023-05-15T09:02:06.504Z,3.30
2023-05-15T09:04:34.505Z,3.33
2023-05-15T09:07:02.286Z,3.40
2023-05-15T09:09:30.765Z,3.40
2023-05-15T09:12:00.462Z,3.38
2023-05-15T09:14:27.807Z,3.20
2023-05-15T09:16:55.267Z,3.40
2023-05-15T09:19:23.782Z,3.38
2023-05-15T09:21:51.298Z,3.50
2023-05-15T09:24:18.726Z,7.53
2023-05-15T09:26:47.520Z,4.07
2023-05-15T09:29:18.947Z,3.85
2023-05-15T09:31:50.227Z,3.40
2023-05-15T09:34:17.751Z,3.50
2023-05-15T09:36:45.349Z,3.10
2023-05-15T09:39:12.928Z,3.10
2023-05-15T09:41:43.134Z,3.90
2023-05-15T09:44:21.611Z,3.55
2023-05-15T09:46:49.733Z,3.47
2023-05-15T09:49:17.305Z,3.15
2023-05-15T09:51:45.090Z,3.08
2023-05-15T09:54:16.306Z,3.38
2023-05-15T09:56:47.603Z,3.45
2023-05-15T09:59:16.141Z,3.45
2023-05-15T10:01:47.406Z,3.58
2023-05-15T10:04:14.979Z,3.47
2023-05-15T10:06:46.231Z,3.30
2023-05-15T10:09:14.435Z,3.05
2023-05-15T10:11:43.503Z,3.17
2023-05-15T10:14:11.992Z,3.28
2023-05-15T10:16:39.940Z,3.33
2023-05-15T10:19:08.552Z,3.20
2023-05-15T10:21:36.917Z,3.10
2023-05-15T10:24:05.096Z,3.00
2023-05-15T10:26:39.393Z,3.20
2023-05-15T10:29:10.962Z,2.90
2023-05-15T10:31:38.426Z,2.83
2023-05-15T10:34:06.221Z,3.17
2023-05-15T10:36:34.749Z,2.50
2023-05-15T10:39:02.916Z,2.67
2023-05-15T10:41:30.852Z,2.70
2023-05-15T10:43:59.476Z,2.50
2023-05-15T10:46:27.520Z,2.97
2023-05-15T10:48:55.148Z,2.70
2023-05-15T10:51:29.632Z,2.75
2023-05-15T10:53:57.678Z,3.08
2023-05-15T10:56:30.754Z,2.72
2023-05-15T10:58:58.544Z,2.97
2023-05-15T11:01:28.741Z,3.05
2023-05-15T11:04:26.789Z,2.50
2023-05-15T11:07:11.900Z,3.13
2023-05-15T11:09:40.203Z,3.97
2023-05-15T11:12:14.214Z,3.38
2023-05-15T11:15:02.237Z,3.08
2023-05-15T11:17:32.616Z,2.70
2023-05-15T11:20:00.580Z,3.60
2023-05-15T11:22:29.291Z,3.40
2023-05-15T11:24:56.919Z,3.33
2023-05-15T11:27:26.280Z,4.05
2023-05-15T11:30:12.446Z,3.10
2023-05-15T11:32:42.796Z,3.10
2023-05-15T11:35:30.042Z,3.25
2023-05-15T11:37:58.873Z,3.70
2023-05-15T11:40:30.383Z,3.03
2023-05-15T11:43:08.753Z,3.38
2023-05-15T11:45:41.367Z,2.83
2023-05-15T11:48:09.353Z,2.88
2023-05-15T11:50:36.854Z,2.90
2023-05-15T11:53:05.519Z,3.40
2023-05-15T11:55:37.101Z,3.38
2023-05-15T11:58:05.033Z,3.33
2023-05-15T12:00:32.466Z,3.10
2023-05-15T12:03:00.049Z,3.10
2023-05-15T12:05:27.661Z,3.40
2023-05-15T12:07:55.204Z,3.42
2023-05-15T12:10:22.881Z,3.78
2023-05-15T12:12:50.647Z,2.92
2023-05-15T12:15:18.440Z,2.92
2023-05-15T12:17:46.713Z,3.97
2023-05-15T12:20:18.846Z,3.50
2023-05-15T12:22:46.386Z,3.40
2023-05-15T12:25:15.962Z,3.50
2023-05-15T12:27:43.603Z,3.33
2023-05-15T12:30:11.517Z,3.50
2023-05-15T12:32:39.601Z,3.40
2023-05-15T12:35:07.337Z,3.67
2023-05-15T12:37:36.466Z,3.40
2023-05-15T12:40:10.296Z,3.72
2023-05-15T12:42:41.589Z,3.47
2023-05-15T12:45:27.158Z,3.70
2023-05-15T12:47:54.690Z,3.45
2023-05-15T12:50:23.860Z,3.47
2023-05-15T12:52:51.656Z,3.20
2023-05-15T12:55:22.974Z,3.85
2023-05-15T12:57:50.539Z,3.85
2023-05-15T13:00:18.343Z,4.03
2023-05-15T13:02:46.192Z,3.45
2023-05-15T13:05:14.795Z,3.30
2023-05-15T13:07:42.674Z,3.30
2023-05-15T13:10:10.735Z,3.25
2023-05-15T13:12:43.663Z,2.97
2023-05-15T13:15:23.012Z,3.35
2023-05-15T13:17:53.017Z,3.20
2023-05-15T13:20:20.521Z,3.58
2023-05-15T13:22:47.904Z,3.00
2023-05-15T13:25:18.799Z,3.25
2023-05-15T13:27:47.245Z,3.30
2023-05-15T13:30:15.475Z,3.10
2023-05-15T13:32:43.372Z,3.35
2023-05-15T13:35:11.176Z,3.20
2023-05-15T13:37:38.624Z,3.13
2023-05-15T13:40:10.013Z,3.40
2023-05-15T13:42:41.171Z,3.10
2023-05-15T13:45:09.482Z,3.17
2023-05-15T13:47:39.902Z,3.28
2023-05-15T13:50:08.256Z,3.00
2023-05-15T13:52:36.011Z,3.03
2023-05-15T13:55:04.688Z,2.97
2023-05-15T13:57:32.365Z,3.15
2023-05-15T13:59:59.957Z,3.10
2023-05-15T14:02:27.466Z,3.00
2023-05-15T14:04:54.934Z,2.90
2023-05-15T14:07:23.973Z,3.10
2023-05-15T14:09:52.040Z,3.30
2023-05-15T14:12:19.450Z,2.97
2023-05-15T14:14:47.135Z,2.90
2023-05-15T14:17:15.089Z,3.30
2023-05-15T14:19:42.542Z,2.72
2023-05-15T14:22:09.902Z,3.15
2023-05-15T14:24:37.665Z,3.28
2023-05-15T14:27:05.173Z,3.05
2023-05-15T14:29:32.785Z,3.33
2023-05-15T14:32:00.250Z,3.17
2023-05-15T14:34:27.994Z,2.90
2023-05-15T14:36:55.388Z,2.88
2023-05-15T14:39:24.173Z,2.45
2023-05-15T14:41:51.560Z,3.22
2023-05-15T14:44:19.229Z,3.05
2023-05-15T14:46:46.783Z,3.20
2023-05-15T14:49:14.329Z,3.45
2023-05-15T14:51:41.722Z,3.08
2023-05-15T14:54:09.360Z,3.42
2023-05-15T14:56:36.823Z,3.05
2023-05-15T14:59:04.192Z,3.22
2023-05-15T15:01:31.701Z,2.70
2023-05-15T15:03:59.143Z,2.80
2023-05-15T15:06:26.742Z,2.88
2023-05-15T15:08:54.191Z,3.22
2023-05-15T15:11:21.634Z,2.83
2023-05-15T15:13:49.058Z,3.10
2023-05-15T15:16:16.768Z,3.00
2023-05-15T15:18:44.853Z,3.25
2023-05-15T15:21:12.781Z,2.90
2023-05-15T15:23:40.187Z,4.32
2023-05-15T15:26:07.732Z,3.00
2023-05-15T15:28:35.291Z,2.78
2023-05-15T15:31:03.958Z,2.85
2023-05-15T15:33:31.338Z,3.72
2023-05-15T15:35:58.772Z,3.88
2023-05-15T15:38:26.401Z,4.28
2023-05-15T15:40:53.789Z,4.10
2023-05-15T15:43:21.161Z,3.47
2023-05-15T15:45:48.699Z,3.90
2023-05-15T15:48:18.211Z,4.20
2023-05-15T15:50:46.421Z,4.15
2023-05-15T15:53:13.795Z,3.60
2023-05-15T15:55:41.325Z,3.10
2023-05-15T15:58:08.733Z,3.00
2023-05-15T16:00:36.471Z,3.25
2023-05-15T16:03:04.085Z,2.88
2023-05-15T16:05:31.635Z,3.20
2023-05-15T16:07:59.208Z,3.10
2023-05-15T16:10:26.670Z,3.30
2023-05-15T16:12:54.130Z,3.10
2023-05-15T16:15:23.772Z,3.30
2023-05-15T16:17:53.562Z,2.90
2023-05-15T16:20:21.984Z,3.92
2023-05-15T16:22:49.458Z,3.70
2023-05-15T16:25:16.952Z,3.28
2023-05-15T16:27:44.299Z,4.07
2023-05-15T16:30:12.210Z,3.33
2023-05-15T16:32:40.517Z,3.60
2023-05-15T16:35:08.419Z,3.83
2023-05-15T16:37:35.962Z,4.10
2023-05-15T16:40:04.214Z,3.53
2023-05-15T16:42:36.252Z,3.72
2023-05-15T16:45:03.767Z,3.90
2023-05-15T16:47:31.159Z,4.10
2023-05-15T16:49:58.708Z,3.33
2023-05-15T16:52:26.203Z,4.60
2023-05-15T16:54:53.683Z,6.43
2023-05-15T16:57:21.001Z,3.40
2023-05-15T16:59:48.589Z,3.28
2023-05-15T17:02:16.119Z,3.75
2023-05-15T17:04:43.766Z,4.30
2023-05-15T17:07:11.192Z,3.50
2023-05-15T17:09:40.229Z,4.28
2023-05-15T17:12:07.895Z,5.18
2023-05-15T17:14:35.322Z,6.20
2023-05-15T17:17:02.841Z,5.07
2023-05-15T17:19:31.265Z,5.13
2023-05-15T17:21:58.871Z,4.05
2023-05-15T17:24:30.746Z,3.80
2023-05-15T17:27:06.394Z,4.07
2023-05-15T17:29:38.033Z,4.82
2023-05-15T17:32:09.187Z,7.05
2023-05-15T17:34:36.913Z,5.03
2023-05-15T17:37:04.466Z,3.67
2023-05-15T17:39:31.941Z,3.50
2023-05-15T17:41:59.304Z,3.42
2023-05-15T17:44:29.618Z,4.13
2023-05-15T17:46:57.525Z,3.88
2023-05-15T17:49:24.975Z,4.15
2023-05-15T17:51:52.605Z,9.02
2023-05-15T17:54:20.099Z,4.60
2023-05-15T17:56:47.509Z,5.50
2023-05-15T17:59:14.944Z,5.95
2023-05-15T18:01:42.585Z,4.82
2023-05-15T18:04:10.328Z,4.63
2023-05-15T18:06:38.076Z,3.90
2023-05-15T18:09:05.542Z,3.70
2023-05-15T18:11:33.149Z,3.70
2023-05-15T18:14:00.671Z,3.70
2023-05-15T18:16:29.713Z,3.78
2023-05-15T18:18:57.322Z,3.75
2023-05-15T18:21:24.936Z,3.65
2023-05-15T18:23:52.393Z,4.38
2023-05-15T18:26:19.858Z,3.90
2023-05-15T18:28:47.227Z,3.55
2023-05-15T18:31:14.626Z,4.57
2023-05-15T18:33:43.234Z,3.40
2023-05-15T18:36:10.776Z,3.83
2023-05-15T18:38:38.265Z,4.00
2023-05-15T18:41:05.745Z,3.72
2023-05-15T18:43:33.114Z,4.50
2023-05-15T18:46:00.561Z,4.18
2023-05-15T18:48:28.094Z,3.90
2023-05-15T18:50:55.861Z,4.63
2023-05-15T18:53:23.252Z,4.55
2023-05-15T18:55:50.783Z,4.30
2023-05-15T18:58:18.252Z,3.80
2023-05-15T19:00:45.755Z,3.55
2023-05-15T19:03:13.375Z,3.65
2023-05-15T19:05:40.887Z,4.78
2023-05-15T19:08:08.421Z,3.55
2023-05-15T19:10:35.864Z,3.50
2023-05-15T19:13:03.253Z,3.95
2023-05-15T19:15:30.713Z,4.57
2023-05-15T19:17:58.174Z,4.35
2023-05-15T19:20:26.030Z,3.50
2023-05-15T19:22:53.574Z,3.40
2023-05-15T19:25:21.025Z,3.20
2023-05-15T19:27:48.530Z,3.20
2023-05-15T19:30:16.125Z,3.70
2023-05-15T19:32:43.697Z,3.47
2023-05-15T19:35:11.127Z,4.80
2023-05-15T19:37:38.651Z,3.85
2023-05-15T19:40:06.256Z,3.38
2023-05-15T19:42:33.752Z,5.45
2023-05-15T19:45:01.169Z,3.50
2023-05-15T19:47:28.726Z,3.90
2023-05-15T19:49:56.336Z,3.35
2023-05-15T19:52:24.468Z,3.20
2023-05-15T19:54:51.875Z,3.22
2023-05-15T19:57:19.359Z,3.45
2023-05-15T19:59:46.846Z,3.50
2023-05-15T20:02:14.667Z,3.67
2023-05-15T20:04:42.088Z,3.40
2023-05-15T20:07:09.466Z,4.10
2023-05-15T20:09:39.253Z,3.92
2023-05-15T20:12:07.146Z,3.70
2023-05-15T20:14:34.623Z,5.05
2023-05-15T20:17:02.097Z,3.42
2023-05-15T20:19:31.484Z,4.07
2023-05-15T20:21:59.095Z,3.83
2023-05-15T20:24:26.468Z,3.90
2023-05-15T20:26:53.928Z,3.88
2023-05-15T20:29:21.413Z,4.65
2023-05-15T20:31:49.143Z,4.38
2023-05-15T20:34:16.585Z,4.75
2023-05-15T20:36:44.290Z,4.60
2023-05-15T20:39:11.745Z,4.20
2023-05-15T20:41:39.296Z,4.22
2023-05-15T20:44:09.501Z,4.40
2023-05-15T20:46:39.756Z,3.97
2023-05-15T20:49:07.287Z,3.83
2023-05-15T20:51:34.715Z,4.55
2023-05-15T20:54:02.096Z,5.97
2023-05-15T20:56:29.470Z,3.90
2023-05-15T20:58:59.542Z,5.05
2023-05-15T21:01:27.369Z,5.28
2023-05-15T21:03:54.957Z,4.60
2023-05-15T21:06:22.562Z,4.20
2023-05-15T21:08:49.984Z,4.05
2023-05-15T21:11:17.404Z,4.68
2023-05-15T21:13:44.801Z,4.38
2023-05-15T21:16:12.251Z,4.63
2023-05-15T21:18:39.637Z,6.13
2023-05-15T21:21:10.129Z,4.78
2023-05-15T21:23:37.741Z,4.47
2023-05-15T21:26:05.204Z,4.32
2023-05-15T21:28:32.795Z,3.85
2023-05-15T21:31:06.311Z,4.88
2023-05-15T21:33:33.847Z,3.80
2023-05-15T21:36:01.226Z,3.90
2023-05-15T21:38:28.824Z,4.00
2023-05-15T21:40:56.191Z,3.90
2023-05-15T21:43:23.765Z,4.63
2023-05-15T21:45:51.336Z,3.85
2023-05-15T21:48:18.789Z,4.25
2023-05-15T21:50:46.182Z,4.22
2023-05-15T21:53:13.670Z,4.40
2023-05-15T21:55:41.165Z,4.38
2023-05-15T21:58:08.679Z,3.72
2023-05-15T22:00:36.254Z,4.20
2023-05-15T22:03:04.728Z,4.10
2023-05-15T22:05:32.189Z,4.47
2023-05-15T22:07:59.808Z,3.90
2023-05-15T22:10:27.458Z,3.63
2023-05-15T22:13:02.792Z,4.05
2023-05-15T22:17:59.031Z,4.00
2023-05-15T22:20:27.033Z,4.03
2023-05-15T22:22:54.559Z,4.22
2023-05-15T22:25:22.086Z,4.05
2023-05-15T22:27:49.535Z,3.60
2023-05-15T22:30:17.117Z,4.05
2023-05-15T22:32:44.570Z,3.83
2023-05-15T22:35:13.252Z,3.80
2023-05-15T22:37:42.080Z,3.92
2023-05-15T22:40:11.094Z,4.50
2023-05-15T22:42:38.542Z,3.75
2023-05-15T22:45:06.177Z,3.95
2023-05-15T22:47:34.050Z,4.13
2023-05-15T22:50:01.630Z,3.45
2023-05-15T22:52:29.115Z,3.60
2023-05-15T22:54:56.470Z,3.63
2023-05-15T22:57:42.031Z,4.38
2023-05-15T23:00:09.995Z,4.03
2023-05-15T23:02:38.521Z,3.90
2023-05-15T23:05:06.517Z,3.80
2023-05-15T23:07:33.960Z,4.28
2023-05-15T23:10:02.656Z,3.80
2023-05-15T23:12:30.609Z,3.90
2023-05-15T23:14:58.076Z,4.05
2023-05-15T23:17:26.648Z,3.80
2023-05-15T23:19:54.267Z,4.00
2023-05-15T23:22:21.652Z,3.92
2023-05-15T23:24:49.062Z,3.85
2023-05-15T23:27:16.547Z,3.70
2023-05-15T23:29:43.937Z,3.88
2023-05-15T23:32:11.402Z,4.00
2023-05-15T23:34:38.804Z,3.92
2023-05-15T23:37:06.632Z,3.88
2023-05-15T23:39:34.002Z,4.18
2023-05-15T23:42:01.462Z,3.97
2023-05-15T23:44:28.914Z,4.63
2023-05-15T23:46:56.473Z,4.00
2023-05-15T23:49:23.852Z,4.00
2023-05-15T23:51:51.751Z,4.00
2023-05-15T23:54:19.116Z,3.88
2023-05-15T23:56:46.638Z,3.97
2023-05-15T23:59:14.326Z,4.10
